Allure of the Seas — C6XS8 — position and weather

sailwx.info

Track history (hours):
 
Tides and Currents Weather Stations Pressure Air Temp Water Temp Dewpoint Dewpoint Depression Visibility Wind Speed Wind Dir Waves Ship Positions

Allure of the Seas

Last reported at 2020-Aug-09 05:30 UTC. Time now 2020-Aug-09 05:38 UTC.
Position N 50°40' W 001°48'.

; draft 9 m.

Type: Passenger vessel. MMSI: 311020700.

Date/timePositionNaut miles runAvg speedWind from/ knotsBaromVisibWave heightAir tempDewpointWater temp
2020-Aug-09 05:30N 50°40' W 001°48'0 0.0
2020-Aug-09 04:30N 50°40' W 001°48'0 0.0
2020-Aug-08 23:30N 50°40' W 001°48'0 0.0
2020-Aug-08 22:30N 50°40' W 001°48'0 0.0
2020-Aug-08 21:30N 50°40' W 001°48'0 0.0
2020-Aug-08 17:30N 50°40' W 001°48'0 0.0
2020-Aug-08 14:24N 50°40' W 001°48'0 0.0
2020-Aug-08 13:00N 50°40' W 001°48'0 0.0
2020-Aug-08 11:30N 50°40' W 001°48'0 0.0
2020-Aug-08 11:00N 50°40' W 001°48'0 0.0
2020-Aug-08 09:30N 50°40' W 001°48'0 0.0
2020-Aug-08 09:00N 50°40' W 001°48'0 0.1
2020-Aug-08 08:00N 50°40' W 001°48'0 0.0
2020-Aug-08 05:00N 50°40' W 001°48'0 0.0
2020-Aug-08 04:00N 50°40' W 001°48'0 0.0
2020-Aug-08 03:30N 50°40' W 001°48'0 0.0
2020-Aug-08 03:00N 50°40' W 001°48'0 0.0
2020-Aug-08 01:00N 50°40' W 001°48'0 0.0
2020-Aug-08 00:00N 50°40' W 001°48'0 0.0
2020-Aug-07 22:00N 50°40' W 001°48'0 0.0
2020-Aug-07 19:30N 50°40' W 001°48'0 0.0
2020-Aug-07 17:27N 50°40' W 001°48'0 0.0
2020-Aug-07 16:30N 50°40' W 001°48'0 0.0
2020-Aug-07 14:00N 50°40' W 001°48'0 0.0
2020-Aug-07 13:00N 50°40' W 001°48'0 0.1
2020-Aug-07 12:30N 50°40' W 001°48'0 0.0
2020-Aug-07 10:30N 50°40' W 001°48'0 0.0
2020-Aug-07 10:00N 50°40' W 001°48'0 0.0
2020-Aug-07 06:30N 50°40' W 001°48'0 0.0
2020-Aug-07 05:00N 50°40' W 001°48'0 0.0
2020-Aug-07 04:30N 50°40' W 001°48'0 0.0
2020-Aug-07 04:00N 50°40' W 001°48'0 0.0
2020-Aug-07 03:27N 50°40' W 001°48'0 0.0
2020-Aug-07 01:00N 50°40' W 001°48'0 0.0
2020-Aug-06 23:30N 50°40' W 001°48'0 0.0
2020-Aug-06 21:30N 50°40' W 001°48'0 0.0
2020-Aug-06 20:00N 50°40' W 001°48'0 0.0
2020-Aug-06 16:00N 50°40' W 001°48'0 0.0
2020-Aug-06 13:24N 50°40' W 001°48'0 0.0
2020-Aug-06 05:57N 50°40' W 001°48'0 0.1
2020-Aug-06 05:30N 50°40' W 001°48'0 0.0
2020-Aug-06 03:54N 50°40' W 001°48'0 0.0
2020-Aug-06 01:54N 50°40' W 001°48'0 0.1
2020-Aug-06 01:18N 50°40' W 001°48'0 0.0
2020-Aug-05 22:30N 50°40' W 001°48'0 0.0
2020-Aug-05 20:00N 50°40' W 001°48'0 0.1
2020-Aug-05 19:30N 50°40' W 001°48'0 0.0
2020-Aug-05 17:30N 50°40' W 001°48'0 0.0
2020-Aug-05 13:48N 50°40' W 001°48'0 0.0
2020-Aug-05 13:00N 50°40' W 001°48'0 0.0
2020-Aug-05 12:30N 50°40' W 001°48'0 0.0
2020-Aug-05 09:30N 50°40' W 001°48'0 0.0
2020-Aug-05 06:30N 50°40' W 001°48'0 0.0
2020-Aug-05 04:30N 50°40' W 001°48'0 0.0
2020-Aug-05 00:30N 50°40' W 001°48'0 0.0
2020-Aug-04 22:30N 50°40' W 001°48'0 0.0
2020-Aug-04 21:00N 50°40' W 001°48'0 0.0
2020-Aug-04 20:00N 50°40' W 001°48'0 0.0
2020-Aug-04 16:54N 50°40' W 001°48'0 0.0
2020-Aug-04 11:00N 50°40' W 001°48'0 0.0
2020-Aug-04 09:30N 50°40' W 001°48'0 0.0
2020-Aug-04 09:00N 50°40' W 001°48'0 0.0
2020-Aug-04 08:18N 50°40' W 001°48'0 0.0
2020-Aug-04 05:00N 50°40' W 001°48'0 0.0
2020-Aug-04 03:57N 50°40' W 001°48'0 0.0
2020-Aug-04 03:00N 50°40' W 001°48'0 0.0
2020-Aug-03 22:30N 50°40' W 001°48'0 0.0
2020-Aug-03 17:30N 50°40' W 001°48'0 0.0
2020-Aug-03 16:30N 50°40' W 001°48'0 0.0
2020-Aug-03 15:30N 50°40' W 001°48'0 0.0
2020-Aug-03 12:57N 50°40' W 001°48'0 0.1
2020-Aug-03 11:00N 50°39' W 001°48'0 0.1
2020-Aug-03 10:00N 50°40' W 001°48'1 1.3
2020-Aug-03 09:30N 50°39' W 001°47'510.7
2020-Aug-03 09:00N 50°34' W 001°48'5415.5
2020-Aug-03 05:31N 50°04' W 002°59'8415.0
2020-Aug-02 23:55N 50°37' W 000°58'3 0.1
2020-Aug-01 03:01N 50°40' W 000°59'5 9.8
2020-Aug-01 02:29N 50°35' W 000°58'43 8.0
2020-Jul-31 21:10N 50°05' W 001°45'24 7.3
2020-Jul-31 17:52N 50°28' W 001°48'11 4.8
2020-Jul-31 15:30N 50°40' W 001°48'0 0.0
2020-Jul-31 12:00N 50°40' W 001°48'0 0.0
2020-Jul-31 06:30N 50°40' W 001°48'0 0.0
2020-Jul-31 05:57N 50°40' W 001°48'0 0.0
2020-Jul-31 05:00N 50°40' W 001°48'0 0.0
2020-Jul-31 04:00N 50°40' W 001°48'0 0.0
2020-Jul-31 01:00N 50°40' W 001°48'0 0.1
2020-Jul-31 00:30N 50°40' W 001°48'0 0.0
2020-Jul-30 22:30N 50°40' W 001°48'0 0.0
2020-Jul-30 21:27N 50°40' W 001°48'0 0.0
2020-Jul-30 20:27N 50°40' W 001°48'0 0.0
2020-Jul-30 19:30N 50°40' W 001°48'0 0.0
2020-Jul-30 13:30N 50°40' W 001°48'0 0.0
2020-Jul-30 10:30N 50°40' W 001°48'0 0.0
2020-Jul-30 08:54N 50°40' W 001°48'0 0.0
2020-Jul-30 08:27N 50°40' W 001°48'0 0.0
2020-Jul-30 06:00N 50°40' W 001°48'  
Track history (hours):
 
Tides and Currents Weather Stations Pressure Air Temp Water Temp Dewpoint Dewpoint Depression Visibility Wind Speed Wind Dir Waves Ship Positions

Allure of the Seas

Last reported at 2020-Aug-09 05:30 UTC. Time now 2020-Aug-09 05:38 UTC.
Position N 50°40' W 001°48'.

; draft 9 m.

Type: Passenger vessel. MMSI: 311020700.

Date/timePositionNaut miles runAvg speedWind from/ knotsBaromVisibWave heightAir tempDewpointWater temp
2020-Aug-09 05:30N 50°40' W 001°48'0 0.0
2020-Aug-09 04:30N 50°40' W 001°48'0 0.0
2020-Aug-08 23:30N 50°40' W 001°48'0 0.0
2020-Aug-08 22:30N 50°40' W 001°48'0 0.0
2020-Aug-08 21:30N 50°40' W 001°48'0 0.0
2020-Aug-08 17:30N 50°40' W 001°48'0 0.0
2020-Aug-08 14:24N 50°40' W 001°48'0 0.0
2020-Aug-08 13:00N 50°40' W 001°48'0 0.0
2020-Aug-08 11:30N 50°40' W 001°48'0 0.0
2020-Aug-08 11:00N 50°40' W 001°48'0 0.0
2020-Aug-08 09:30N 50°40' W 001°48'0 0.0
2020-Aug-08 09:00N 50°40' W 001°48'0 0.1
2020-Aug-08 08:00N 50°40' W 001°48'0 0.0
2020-Aug-08 05:00N 50°40' W 001°48'0 0.0
2020-Aug-08 04:00N 50°40' W 001°48'0 0.0
2020-Aug-08 03:30N 50°40' W 001°48'0 0.0
2020-Aug-08 03:00N 50°40' W 001°48'0 0.0
2020-Aug-08 01:00N 50°40' W 001°48'0 0.0
2020-Aug-08 00:00N 50°40' W 001°48'0 0.0
2020-Aug-07 22:00N 50°40' W 001°48'0 0.0
2020-Aug-07 19:30N 50°40' W 001°48'0 0.0
2020-Aug-07 17:27N 50°40' W 001°48'0 0.0
2020-Aug-07 16:30N 50°40' W 001°48'0 0.0
2020-Aug-07 14:00N 50°40' W 001°48'0 0.0
2020-Aug-07 13:00N 50°40' W 001°48'0 0.1
2020-Aug-07 12:30N 50°40' W 001°48'0 0.0
2020-Aug-07 10:30N 50°40' W 001°48'0 0.0
2020-Aug-07 10:00N 50°40' W 001°48'0 0.0
2020-Aug-07 06:30N 50°40' W 001°48'0 0.0
2020-Aug-07 05:00N 50°40' W 001°48'0 0.0
2020-Aug-07 04:30N 50°40' W 001°48'0 0.0
2020-Aug-07 04:00N 50°40' W 001°48'0 0.0
2020-Aug-07 03:27N 50°40' W 001°48'0 0.0
2020-Aug-07 01:00N 50°40' W 001°48'0 0.0
2020-Aug-06 23:30N 50°40' W 001°48'0 0.0
2020-Aug-06 21:30N 50°40' W 001°48'0 0.0
2020-Aug-06 20:00N 50°40' W 001°48'0 0.0
2020-Aug-06 16:00N 50°40' W 001°48'0 0.0
2020-Aug-06 13:24N 50°40' W 001°48'0 0.0
2020-Aug-06 05:57N 50°40' W 001°48'0 0.1
2020-Aug-06 05:30N 50°40' W 001°48'0 0.0
2020-Aug-06 03:54N 50°40' W 001°48'0 0.0
2020-Aug-06 01:54N 50°40' W 001°48'0 0.1
2020-Aug-06 01:18N 50°40' W 001°48'0 0.0
2020-Aug-05 22:30N 50°40' W 001°48'0 0.0
2020-Aug-05 20:00N 50°40' W 001°48'0 0.1
2020-Aug-05 19:30N 50°40' W 001°48'0 0.0
2020-Aug-05 17:30N 50°40' W 001°48'0 0.0
2020-Aug-05 13:48N 50°40' W 001°48'0 0.0
2020-Aug-05 13:00N 50°40' W 001°48'0 0.0
2020-Aug-05 12:30N 50°40' W 001°48'0 0.0
2020-Aug-05 09:30N 50°40' W 001°48'0 0.0
2020-Aug-05 06:30N 50°40' W 001°48'0 0.0
2020-Aug-05 04:30N 50°40' W 001°48'0 0.0
2020-Aug-05 00:30N 50°40' W 001°48'0 0.0
2020-Aug-04 22:30N 50°40' W 001°48'0 0.0
2020-Aug-04 21:00N 50°40' W 001°48'0 0.0
2020-Aug-04 20:00N 50°40' W 001°48'0 0.0
2020-Aug-04 16:54N 50°40' W 001°48'0 0.0
2020-Aug-04 11:00N 50°40' W 001°48'0 0.0
2020-Aug-04 09:30N 50°40' W 001°48'0 0.0
2020-Aug-04 09:00N 50°40' W 001°48'0 0.0
2020-Aug-04 08:18N 50°40' W 001°48'0 0.0
2020-Aug-04 05:00N 50°40' W 001°48'0 0.0
2020-Aug-04 03:57N 50°40' W 001°48'0 0.0
2020-Aug-04 03:00N 50°40' W 001°48'0 0.0
2020-Aug-03 22:30N 50°40' W 001°48'0 0.0
2020-Aug-03 17:30N 50°40' W 001°48'0 0.0
2020-Aug-03 16:30N 50°40' W 001°48'0 0.0
2020-Aug-03 15:30N 50°40' W 001°48'0 0.0
2020-Aug-03 12:57N 50°40' W 001°48'0 0.1
2020-Aug-03 11:00N 50°39' W 001°48'0 0.1
2020-Aug-03 10:00N 50°40' W 001°48'1 1.3
2020-Aug-03 09:30N 50°39' W 001°47'510.7
2020-Aug-03 09:00N 50°34' W 001°48'5415.5
2020-Aug-03 05:31N 50°04' W 002°59'8415.0
2020-Aug-02 23:55N 50°37' W 000°58'3 0.1
2020-Aug-01 03:01N 50°40' W 000°59'5 9.8
2020-Aug-01 02:29N 50°35' W 000°58'43 8.0
2020-Jul-31 21:10N 50°05' W 001°45'24 7.3
2020-Jul-31 17:52N 50°28' W 001°48'11 4.8
2020-Jul-31 15:30N 50°40' W 001°48'0 0.0
2020-Jul-31 12:00N 50°40' W 001°48'0 0.0
2020-Jul-31 06:30N 50°40' W 001°48'0 0.0
2020-Jul-31 05:57N 50°40' W 001°48'0 0.0
2020-Jul-31 05:00N 50°40' W 001°48'0 0.0
2020-Jul-31 04:00N 50°40' W 001°48'0 0.0
2020-Jul-31 01:00N 50°40' W 001°48'0 0.1
2020-Jul-31 00:30N 50°40' W 001°48'0 0.0
2020-Jul-30 22:30N 50°40' W 001°48'0 0.0
2020-Jul-30 21:27N 50°40' W 001°48'0 0.0
2020-Jul-30 20:27N 50°40' W 001°48'0 0.0
2020-Jul-30 19:30N 50°40' W 001°48'0 0.0
2020-Jul-30 13:30N 50°40' W 001°48'0 0.0
2020-Jul-30 10:30N 50°40' W 001°48'0 0.0
2020-Jul-30 08:54N 50°40' W 001°48'0 0.0
2020-Jul-30 08:27N 50°40' W 001°48'0 0.0
2020-Jul-30 06:00N 50°40' W 001°48'  

Dump ship's entire track history